Time;durP1;ratioP1;P1;durP2;ratioP2;P2;SDS_P1;SDS_P2;PMS_P1;PMS_P2;Temp;Humidity;BMP_temperature;BMP_pressure;BME280_temperature;BME280_humidity;BME280_pressure;Samples;Min_cycle;Max_cycle;Signal;HPM_P1;HPM_P2
2023/12/31 00:01:35;;;;;;;3.15;1.90;;;9.40;99.90;;;9.33;100.00;100166.41;5219414;28;20422;-48
2023/12/31 00:04:07;;;;;;;2.83;1.30;;;9.40;99.90;;;9.36;100.00;100160.41;5217004;28;20029;-49
2023/12/31 00:06:41;;;;;;;2.22;1.23;;;9.40;99.90;;;9.37;100.00;100142.25;5232678;28;20041;-49
2023/12/31 00:09:14;;;;;;;1.92;1.27;;;9.40;99.90;;;9.35;100.00;100143.94;5210964;28;20048;-48
2023/12/31 00:11:46;;;;;;;2.50;1.30;;;9.40;99.90;;;9.37;100.00;100146.56;5210541;28;20044;-48
2023/12/31 00:14:18;;;;;;;2.58;1.40;;;9.40;99.90;;;9.40;100.00;100141.47;5219205;28;20041;-49
2023/12/31 00:16:51;;;;;;;3.50;1.30;;;9.50;99.90;;;9.39;100.00;100131.88;5213800;28;20049;-48
2023/12/31 00:19:23;;;;;;;2.28;1.30;;;9.40;99.90;;;9.37;100.00;100130.97;5217482;28;20724;-48
2023/12/31 00:21:57;;;;;;;2.47;1.38;;;9.40;99.90;;;9.35;100.00;100127.44;5233831;28;20068;-48
2023/12/31 00:24:29;;;;;;;4.90;1.27;;;9.40;99.90;;;9.35;100.00;100120.53;5216067;28;20041;-48
2023/12/31 00:27:02;;;;;;;2.55;1.55;;;9.40;99.90;;;9.39;100.00;100116.25;5215449;28;20053;-48
2023/12/31 00:29:34;;;;;;;4.10;1.45;;;9.40;99.90;;;9.35;100.00;100097.09;5234738;28;20075;-49
2023/12/31 00:32:07;;;;;;;2.35;1.48;;;9.40;99.90;;;9.33;100.00;100096.19;5229045;28;20507;-48
2023/12/31 00:34:40;;;;;;;3.42;1.40;;;9.40;99.90;;;9.30;100.00;100077.00;5215769;28;20047;-49
2023/12/31 00:37:14;;;;;;;2.78;1.58;;;9.40;99.90;;;9.30;100.00;100071.81;5229981;28;20048;-48
2023/12/31 00:39:46;;;;;;;3.30;1.80;;;9.40;99.90;;;9.27;100.00;100063.94;5218826;28;20056;-49
2023/12/31 00:42:18;;;;;;;2.58;1.30;;;9.40;99.90;;;9.24;100.00;100049.97;5220025;28;20045;-48
2023/12/31 00:44:51;;;;;;;1.52;1.02;;;9.40;99.90;;;9.24;100.00;100051.69;5234466;28;20060;-48
2023/12/31 00:47:23;;;;;;;3.20;1.60;;;9.30;99.90;;;9.28;100.00;100039.69;5216776;28;20056;-49
2023/12/31 00:49:57;;;;;;;4.40;1.40;;;9.30;99.90;;;9.29;100.00;100041.44;5232059;28;20057;-49
2023/12/31 00:52:31;;;;;;;3.40;1.45;;;9.40;99.90;;;9.29;100.00;100037.13;5218911;28;20049;-48
2023/12/31 00:55:03;;;;;;;2.58;1.38;;;9.40;99.90;;;9.32;100.00;100037.19;5228597;28;20045;-48
2023/12/31 00:57:36;;;;;;;1.42;0.93;;;9.40;99.90;;;9.36;100.00;100035.56;5231183;28;20095;-49
2023/12/31 01:00:10;;;;;;;2.08;1.10;;;9.40;99.90;;;9.35;100.00;100029.47;5214619;28;20052;-49
2023/12/31 01:02:42;;;;;;;3.42;1.42;;;9.40;99.90;;;9.38;100.00;100031.28;5232227;28;20511;-48
2023/12/31 01:05:15;;;;;;;1.65;1.08;;;9.50;99.90;;;9.39;100.00;100026.13;5229783;28;20037;-48
2023/12/31 01:07:48;;;;;;;3.38;1.40;;;9.50;99.90;;;9.43;100.00;100025.38;5212625;28;20045;-50
2023/12/31 01:10:21;;;;;;;1.55;1.00;;;9.50;99.90;;;9.45;100.00;100035.81;5229620;28;20056;-48
2023/12/31 01:12:54;;;;;;;2.60;1.48;;;9.50;99.90;;;9.50;100.00;100024.69;5215383;28;20478;-49
2023/12/31 01:15:26;;;;;;;1.17;0.90;;;9.50;99.90;;;9.52;100.00;100004.81;5230256;28;20064;-47
2023/12/31 01:17:59;;;;;;;2.35;0.95;;;9.60;99.90;;;9.56;100.00;100007.47;5214084;28;20049;-48
2023/12/31 01:20:31;;;;;;;2.63;1.35;;;9.60;99.90;;;9.55;100.00;100013.53;5216258;28;20053;-48
2023/12/31 01:23:05;;;;;;;3.08;1.35;;;9.60;99.90;;;9.57;100.00;100009.25;5214932;28;20045;-47
2023/12/31 01:25:37;;;;;;;3.85;1.60;;;9.60;99.90;;;9.58;100.00;100000.59;5212282;28;20052;-48
2023/12/31 01:28:10;;;;;;;2.55;1.20;;;9.60;99.90;;;9.55;100.00;100005.72;5217147;28;20580;-50
2023/12/31 01:30:42;;;;;;;3.35;1.58;;;9.60;99.90;;;9.55;100.00;100006.59;5231147;28;20080;-48
2023/12/31 01:33:15;;;;;;;1.63;0.82;;;9.60;99.90;;;9.55;100.00;100005.72;5216493;28;20037;-49
2023/12/31 01:35:47;;;;;;;2.75;1.55;;;9.60;99.90;;;9.54;100.00;100003.97;5213608;28;20407;-49
2023/12/31 01:38:21;;;;;;;3.92;1.20;;;9.60;99.90;;;9.52;100.00;99986.59;5215771;28;20137;-47
2023/12/31 01:40:54;;;;;;;1.48;0.93;;;9.60;99.90;;;9.55;100.00;99988.38;5213207;28;20064;-48
2023/12/31 01:43:26;;;;;;;7.78;1.35;;;9.60;99.90;;;9.58;100.00;99985.84;5217677;28;20052;-49
2023/12/31 01:45:59;;;;;;;1.98;1.20;;;9.60;99.90;;;9.54;100.00;99980.56;5212642;28;20137;-49
2023/12/31 01:48:32;;;;;;;2.88;1.10;;;9.60;99.90;;;9.51;100.00;99984.81;5227814;28;20056;-46
2023/12/31 01:51:05;;;;;;;1.60;1.30;;;9.60;99.90;;;9.51;100.00;99974.41;5214687;28;20420;-48
2023/12/31 01:53:39;;;;;;;0.98;0.88;;;9.60;99.90;;;9.51;100.00;99970.94;5234394;28;20491;-48
2023/12/31 01:56:12;;;;;;;1.80;1.17;;;9.60;99.90;;;9.51;100.00;99971.81;5234451;28;20045;-48
2023/12/31 01:58:44;;;;;;;1.55;1.00;;;9.60;99.90;;;9.47;100.00;99961.31;5218807;28;20043;-48
2023/12/31 02:01:18;;;;;;;2.40;0.93;;;9.60;99.90;;;9.50;100.00;99963.97;5217584;28;20059;-49
2023/12/31 02:03:50;;;;;;;2.40;1.42;;;9.60;99.90;;;9.47;100.00;99956.97;5216834;28;20487;-47
2023/12/31 02:06:24;;;;;;;1.40;1.00;;;9.60;99.90;;;9.45;100.00;99948.25;5231332;28;20046;-48
2023/12/31 02:08:59;;;;;;;1.30;0.90;;;9.60;99.90;;;9.43;100.00;99949.94;5229459;28;20559;-48
2023/12/31 02:11:32;;;;;;;1.98;1.02;;;9.60;99.90;;;9.46;100.00;99947.41;5221885;28;20106;-50
2023/12/31 02:14:05;;;;;;;2.10;1.00;;;9.50;99.90;;;9.44;100.00;99946.47;5219877;28;20059;-49
2023/12/31 02:16:37;;;;;;;1.90;1.02;;;9.50;99.90;;;9.44;100.00;99930.88;5218427;28;20047;-47
2023/12/31 02:19:11;;;;;;;5.25;1.40;;;9.50;99.90;;;9.46;100.00;99926.59;5218545;28;20049;-49
2023/12/31 02:21:43;;;;;;;4.28;1.42;;;9.60;99.90;;;9.47;100.00;99928.38;5237174;28;20444;-48
2023/12/31 02:24:20;;;;;;;1.25;1.15;;;9.60;99.90;;;9.48;100.00;99921.44;5219865;28;20110;-48
2023/12/31 02:26:54;;;;;;;1.90;1.48;;;9.60;99.90;;;9.46;100.00;99907.53;5236905;28;20399;-48
2023/12/31 02:29:26;;;;;;;2.38;1.20;;;9.50;99.90;;;9.41;100.00;99899.59;5234710;28;20073;-49
2023/12/31 02:31:59;;;;;;;3.33;1.20;;;9.50;99.90;;;9.40;100.00;99895.25;5211464;28;20049;-48
2023/12/31 02:34:33;;;;;;;2.55;1.27;;;9.50;99.90;;;9.40;100.00;99892.63;5234365;28;20132;-48
2023/12/31 02:37:05;;;;;;;2.85;1.30;;;9.50;99.90;;;9.40;100.00;99877.03;5218710;28;20045;-47
2023/12/31 02:39:37;;;;;;;2.92;1.20;;;9.50;99.90;;;9.39;100.00;99880.47;5233546;28;20068;-48
2023/12/31 02:42:11;;;;;;;2.00;0.90;;;9.50;99.90;;;9.39;100.00;99869.16;5214183;28;20045;-48
2023/12/31 02:44:44;;;;;;;1.40;0.85;;;9.50;99.90;;;9.39;100.00;99870.06;5210210;28;20045;-48
2023/12/31 02:47:16;;;;;;;1.65;1.08;;;9.50;99.90;;;9.39;100.00;99863.97;5231643;28;20055;-47
2023/12/31 02:49:48;;;;;;;1.27;1.10;;;9.50;99.90;;;9.35;100.00;99862.16;5236684;28;20049;-48
2023/12/31 02:52:21;;;;;;;2.58;1.73;;;9.50;99.90;;;9.33;100.00;99849.13;5214581;28;20448;-48
2023/12/31 02:54:53;;;;;;;2.42;1.27;;;9.50;99.90;;;9.32;100.00;99841.25;5215892;28;20049;-50
2023/12/31 02:57:28;;;;;;;2.22;1.05;;;9.50;99.90;;;9.32;100.00;99836.94;5215404;28;20072;-48
2023/12/31 03:00:00;;;;;;;2.45;1.02;;;9.50;99.90;;;9.32;100.00;99825.66;5231416;28;20041;-48
2023/12/31 03:02:33;;;;;;;2.35;1.30;;;9.50;99.90;;;9.29;100.00;99821.25;5233129;28;20045;-47
2023/12/31 03:05:07;;;;;;;3.13;1.02;;;9.40;99.90;;;9.28;100.00;99813.44;5233792;28;20136;-49
2023/12/31 03:07:40;;;;;;;3.00;1.58;;;9.40;99.90;;;9.23;100.00;99806.38;5234143;28;20412;-49
2023/12/31 03:10:12;;;;;;;2.65;1.23;;;9.40;99.90;;;9.20;100.00;99805.44;5219190;28;20139;-49
2023/12/31 03:12:46;;;;;;;6.70;1.50;;;9.40;99.90;;;9.18;100.00;99797.59;5231178;28;20055;-49
2023/12/31 03:15:20;;;;;;;4.80;1.63;;;9.30;99.90;;;9.16;100.00;99788.88;5235066;28;20049;-49
2023/12/31 03:17:52;;;;;;;2.75;1.10;;;9.40;99.90;;;9.15;100.00;99787.13;5212008;28;20451;-50
2023/12/31 03:20:25;;;;;;;1.92;1.13;;;9.30;99.90;;;9.13;100.00;99786.22;5232352;28;20057;-49
2023/12/31 03:22:57;;;;;;;2.80;1.15;;;9.30;99.90;;;9.10;100.00;99774.84;5235636;28;20059;-48
2023/12/31 03:25:30;;;;;;;1.65;1.02;;;9.30;99.90;;;9.06;100.00;99770.41;5216932;28;20045;-48
2023/12/31 03:28:04;;;;;;;1.42;0.90;;;9.30;99.90;;;9.09;100.00;99768.78;5214282;28;20049;-48
2023/12/31 03:30:37;;;;;;;2.33;1.40;;;9.30;99.90;;;9.10;100.00;99764.44;5236858;28;20498;-50
2023/12/31 03:33:09;;;;;;;5.13;1.45;;;9.20;99.90;;;9.09;100.00;99760.97;5220314;28;20136;-48
2023/12/31 03:35:42;;;;;;;1.23;0.98;;;9.30;99.90;;;9.09;100.00;99773.09;5236028;28;20055;-48
2023/12/31 03:38:15;;;;;;;2.33;0.90;;;9.30;99.90;;;9.11;100.00;99761.88;5233962;28;20052;-48
2023/12/31 03:40:47;;;;;;;2.55;0.98;;;9.30;99.90;;;9.10;100.00;99757.53;5218153;28;20066;-48
2023/12/31 03:43:23;;;;;;;1.48;0.90;;;9.20;99.90;;;9.11;100.00;99755.81;5234373;28;20132;-48
2023/12/31 03:45:56;;;;;;;1.65;1.13;;;9.20;99.90;;;9.10;100.00;99749.72;5230646;28;20127;-48
2023/12/31 03:48:29;;;;;;;1.05;0.80;;;9.30;99.90;;;9.12;100.00;99742.84;5232479;28;20053;-48
2023/12/31 03:51:01;;;;;;;2.40;1.02;;;9.30;99.90;;;9.14;100.00;99737.69;5232314;28;20044;-48
2023/12/31 03:53:34;;;;;;;3.15;0.90;;;9.30;99.90;;;9.13;100.00;99731.63;5233752;28;20068;-48
2023/12/31 03:56:09;;;;;;;2.28;1.00;;;9.30;99.90;;;9.11;100.00;99714.22;5214705;28;20053;-48
2023/12/31 03:58:43;;;;;;;3.25;1.23;;;9.30;99.90;;;9.10;100.00;99705.53;5217038;28;20512;-48
2023/12/31 04:01:16;;;;;;;1.58;1.05;;;9.30;99.90;;;9.05;100.00;99694.16;5231889;28;20042;-48
2023/12/31 04:03:48;;;;;;;4.60;1.38;;;9.30;99.90;;;9.06;100.00;99701.09;5211718;28;20416;-47
2023/12/31 04:06:21;;;;;;;2.38;1.00;;;9.30;99.90;;;9.03;100.00;99692.38;5234061;28;20051;-48
2023/12/31 04:08:53;;;;;;;1.02;0.98;;;9.20;99.90;;;9.04;100.00;99681.13;5207624;28;20053;-48
2023/12/31 04:11:25;;;;;;;1.88;1.10;;;9.20;99.90;;;9.03;100.00;99669.84;5232090;28;20060;-48
2023/12/31 04:13:59;;;;;;;1.65;0.90;;;9.20;99.90;;;9.03;100.00;99663.78;5212438;28;20049;-48
2023/12/31 04:16:31;;;;;;;3.95;1.30;;;9.20;99.90;;;9.04;100.00;99657.72;5217676;28;20048;-49
2023/12/31 04:19:04;;;;;;;1.08;0.70;;;9.20;99.90;;;9.02;100.00;99660.31;5216604;28;20055;-49
2023/12/31 04:21:36;;;;;;;2.70;1.30;;;9.20;99.90;;;9.02;100.00;99639.50;5232578;28;20603;-48
2023/12/31 04:24:10;;;;;;;1.10;0.90;;;9.20;99.90;;;9.02;100.00;99643.81;5235378;28;20142;-49
2023/12/31 04:26:44;;;;;;;1.92;0.98;;;9.20;99.90;;;9.03;100.00;99635.19;5214277;28;20518;-51
2023/12/31 04:29:18;;;;;;;5.47;1.15;;;9.20;99.90;;;9.01;100.00;99648.16;5215372;28;20055;-50
2023/12/31 04:31:50;;;;;;;1.67;1.23;;;9.20;99.90;;;9.02;100.00;99629.09;5212282;28;20403;-48
2023/12/31 04:34:23;;;;;;;2.20;1.40;;;9.20;99.90;;;9.03;100.00;99624.78;5205510;28;20048;-50
2023/12/31 04:36:55;;;;;;;1.98;1.17;;;9.20;99.90;;;9.06;100.00;99620.50;5211770;28;20451;-48
2023/12/31 04:39:28;;;;;;;1.65;1.02;;;9.20;99.90;;;9.06;100.00;99614.44;5214336;28;20048;-48
2023/12/31 04:42:00;;;;;;;2.78;1.20;;;9.30;99.90;;;9.05;100.00;99600.56;5231387;28;20049;-49
2023/12/31 04:44:34;;;;;;;1.60;0.88;;;9.20;99.90;;;9.07;100.00;99621.41;5233210;28;20136;-47
2023/12/31 04:47:06;;;;;;;1.02;0.93;;;9.20;99.90;;;9.04;100.00;99611.81;5213189;28;20160;-50
2023/12/31 04:49:39;;;;;;;2.90;1.10;;;9.20;99.90;;;9.05;100.00;99612.69;5215034;28;20148;-49
2023/12/31 04:52:11;;;;;;;3.92;1.00;;;9.20;99.90;;;9.04;100.00;99610.94;5212249;28;20060;-48
2023/12/31 04:54:44;;;;;;;1.27;0.70;;;9.20;99.90;;;9.07;100.00;99598.91;5230361;28;20057;-48
2023/12/31 04:57:16;;;;;;;1.70;1.02;;;9.20;99.90;;;9.10;100.00;99611.94;5218478;28;20154;-49
2023/12/31 04:59:50;;;;;;;2.65;1.13;;;9.30;99.90;;;9.10;100.00;99596.34;5211290;28;20049;-48
2023/12/31 05:02:23;;;;;;;1.30;0.90;;;9.30;99.90;;;9.12;100.00;99597.25;5218672;28;20065;-49
2023/12/31 05:04:55;;;;;;;1.70;0.80;;;9.30;99.90;;;9.16;100.00;99591.28;5213728;28;20060;-50
2023/12/31 05:07:28;;;;;;;3.35;1.00;;;9.30;99.90;;;9.16;100.00;99585.22;5209316;28;20091;-48
2023/12/31 05:10:01;;;;;;;1.50;0.90;;;9.30;99.90;;;9.19;100.00;99590.47;5236141;28;20576;-48
2023/12/31 05:12:34;;;;;;;1.73;1.30;;;9.30;99.90;;;9.21;100.00;99575.78;5233654;28;20095;-48
2023/12/31 05:15:08;;;;;;;1.50;0.98;;;9.40;99.90;;;9.24;100.00;99574.13;5213029;28;20041;-48
2023/12/31 05:17:40;;;;;;;2.38;0.80;;;9.40;99.90;;;9.25;100.00;99565.47;5233299;28;20045;-49
2023/12/31 05:20:13;;;;;;;4.20;1.42;;;9.40;99.90;;;9.27;100.00;99573.31;5210600;28;20057;-49
2023/12/31 05:22:46;;;;;;;1.05;0.90;;;9.40;99.90;;;9.27;100.00;99565.53;5233122;28;20079;-48
2023/12/31 05:25:18;;;;;;;1.85;1.10;;;9.40;99.90;;;9.29;100.00;99560.34;5214854;28;20064;-48
2023/12/31 05:27:50;;;;;;;0.75;0.68;;;9.40;99.90;;;9.31;100.00;99562.13;5217790;28;20056;-47
2023/12/31 05:30:24;;;;;;;1.75;0.82;;;9.40;99.90;;;9.34;100.00;99567.41;5217268;28;20063;-48
2023/12/31 05:32:57;;;;;;;2.42;0.98;;;9.50;99.90;;;9.32;100.00;99566.47;5234881;28;20049;-49
2023/12/31 05:35:29;;;;;;;0.93;0.68;;;9.40;99.90;;;9.30;100.00;99556.88;5234524;28;20048;-47
2023/12/31 05:38:01;;;;;;;2.42;0.80;;;9.50;99.90;;;9.29;100.00;99560.34;5238482;28;20053;-50
2023/12/31 05:40:34;;;;;;;1.80;0.93;;;9.50;99.90;;;9.27;100.00;99547.31;5220644;28;20095;-48
2023/12/31 05:43:06;;;;;;;1.50;0.88;;;9.40;99.90;;;9.25;100.00;99536.84;5232396;28;20045;-50
2023/12/31 05:45:40;;;;;;;1.25;0.90;;;9.40;99.90;;;9.30;100.00;99539.56;5219487;28;20057;-48
2023/12/31 05:48:14;;;;;;;1.10;0.73;;;9.40;99.90;;;9.30;100.00;99536.09;5212582;28;20048;-47
2023/12/31 05:50:46;;;;;;;1.10;0.80;;;9.40;99.90;;;9.31;100.00;99530.91;5214684;28;20046;-48
2023/12/31 05:53:19;;;;;;;0.80;0.75;;;9.50;99.90;;;9.31;100.00;99537.84;5212352;28;20049;-49
2023/12/31 05:55:52;;;;;;;1.40;1.02;;;9.50;99.90;;;9.28;100.00;99527.38;5218591;28;20033;-48
2023/12/31 05:58:24;;;;;;;1.85;1.13;;;9.40;99.90;;;9.28;100.00;99525.66;5234691;28;20048;-47
2023/12/31 06:00:58;;;;;;;1.65;0.98;;;9.40;99.90;;;9.29;100.00;99524.81;5216940;28;20045;-49
2023/12/31 06:03:30;;;;;;;1.42;1.10;;;9.50;99.90;;;9.30;100.00;99513.56;5236446;28;20568;-50
2023/12/31 06:06:04;;;;;;;2.65;0.98;;;9.40;99.90;;;9.31;100.00;99509.22;5211220;28;20049;-49
2023/12/31 06:08:37;;;;;;;1.48;0.93;;;9.50;99.90;;;9.32;100.00;99497.97;5234411;28;20495;-49
2023/12/31 06:11:10;;;;;;;0.98;0.80;;;9.40;99.90;;;9.32;100.00;99493.66;5215726;28;20052;-49
2023/12/31 06:13:43;;;;;;;2.35;0.85;;;9.50;99.90;;;9.35;100.00;99498.94;5212073;28;20073;-49
2023/12/31 06:16:16;;;;;;;1.60;0.65;;;9.50;99.90;;;9.38;100.00;99498.09;5212848;28;20052;-48
2023/12/31 06:18:49;;;;;;;2.75;1.10;;;9.50;99.90;;;9.36;100.00;99500.69;5209619;28;20069;-49
2023/12/31 06:21:21;;;;;;;2.60;0.88;;;9.50;99.90;;;9.39;100.00;99495.56;5236438;28;20048;-48
2023/12/31 06:23:54;;;;;;;0.80;0.80;;;9.50;99.90;;;9.41;100.00;99492.97;5210524;28;20045;-48
2023/12/31 06:26:26;;;;;;;1.85;1.02;;;9.50;99.90;;;9.41;100.00;99492.97;5235900;28;20051;-51
2023/12/31 06:28:58;;;;;;;1.52;1.08;;;9.50;99.90;;;9.43;100.00;99483.47;5234160;28;20049;-48
2023/12/31 06:31:32;;;;;;;1.85;1.45;;;9.60;99.90;;;9.48;100.00;99495.72;5217024;28;20402;-48
2023/12/31 06:34:05;;;;;;;1.88;1.13;;;9.60;99.90;;;9.49;100.00;99481.84;5235549;28;20575;-47
2023/12/31 06:36:38;;;;;;;3.45;1.17;;;9.60;99.90;;;9.50;100.00;99473.19;5220200;28;20407;-47
2023/12/31 06:39:10;;;;;;;1.23;0.80;;;9.60;99.90;;;9.57;100.00;99486.31;5236047;28;20041;-48
2023/12/31 06:41:43;;;;;;;1.55;0.80;;;9.70;99.90;;;9.65;100.00;99492.50;5219969;28;20049;-47
2023/12/31 06:44:15;;;;;;;1.75;0.77;;;9.70;99.90;;;9.65;100.00;99496.03;5234579;28;20048;-47
2023/12/31 06:46:49;;;;;;;2.38;1.00;;;9.70;99.90;;;9.67;100.00;99475.22;5214830;28;20037;-48
2023/12/31 06:49:21;;;;;;;1.05;0.70;;;9.80;99.90;;;9.69;100.00;99486.53;5235106;28;20060;-48
2023/12/31 06:51:54;;;;;;;1.83;0.80;;;9.80;99.90;;;9.70;100.00;99470.06;5219283;28;20045;-47
2023/12/31 06:54:26;;;;;;;1.25;0.80;;;9.80;99.90;;;9.78;100.00;99484.09;5228373;28;20053;-48
2023/12/31 06:56:58;;;;;;;2.75;1.05;;;9.80;99.90;;;9.74;100.00;99482.28;5220788;28;20056;-49
2023/12/31 06:59:31;;;;;;;1.17;0.93;;;9.80;99.90;;;9.77;100.00;99471.91;5213479;28;20063;-49
2023/12/31 07:02:05;;;;;;;3.03;0.93;;;9.80;99.90;;;9.78;100.00;99471.09;5213552;28;20053;-49
2023/12/31 07:04:37;;;;;;;1.50;0.95;;;9.80;99.90;;;9.81;100.00;99460.72;5219836;28;20071;-49
2023/12/31 07:07:10;;;;;;;1.17;0.75;;;9.80;99.90;;;9.79;100.00;99455.50;5237502;28;20144;-47
2023/12/31 07:09:42;;;;;;;1.33;1.17;;;9.90;99.90;;;9.76;100.00;99455.44;5214632;28;20459;-47
2023/12/31 07:12:15;;;;;;;1.00;0.80;;;9.80;99.90;;;9.73;100.00;99447.59;5216051;28;20041;-47
2023/12/31 07:14:47;;;;;;;2.55;1.50;;;9.80;99.90;;;9.75;100.00;99442.41;5221096;28;20913;-50
2023/12/31 07:17:21;;;;;;;1.05;0.75;;;9.80;99.90;;;9.77;100.00;99435.50;5235603;28;20519;-49
2023/12/31 07:19:53;;;;;;;2.40;1.10;;;9.90;99.90;;;9.75;100.00;99434.59;5208594;28;20416;-48
2023/12/31 07:22:25;;;;;;;1.85;1.33;;;9.80;99.90;;;9.73;100.00;99434.59;5232261;28;20431;-47
2023/12/31 07:25:00;;;;;;;2.30;0.90;;;9.80;99.90;;;9.72;100.00;99435.44;5219671;28;20060;-49
2023/12/31 07:27:32;;;;;;;2.20;1.13;;;9.80;99.90;;;9.72;100.00;99424.16;5234572;28;20689;-50
2023/12/31 07:30:08;;;;;;;1.50;0.98;;;9.80;99.90;;;9.70;100.00;99428.44;5234149;28;20049;-49
2023/12/31 07:32:42;;;;;;;1.25;1.10;;;9.80;99.90;;;9.68;100.00;99435.34;5231715;28;20057;-48
2023/12/31 07:35:14;;;;;;;1.92;0.90;;;9.80;99.90;;;9.70;100.00;99439.72;5219527;28;20055;-48
2023/12/31 07:37:47;;;;;;;1.00;0.80;;;9.80;99.90;;;9.72;100.00;99431.97;5213983;28;20049;-49
2023/12/31 07:40:20;;;;;;;0.80;0.70;;;9.80;99.90;;;9.69;100.00;99430.16;5230164;28;20053;-47
2023/12/31 07:42:52;;;;;;;1.80;0.95;;;9.80;99.90;;;9.69;100.00;99437.09;5211753;28;20049;-49
2023/12/31 07:45:25;;;;;;;2.20;0.90;;;9.70;99.90;;;9.65;100.00;99420.56;5232219;28;20046;-48
2023/12/31 07:47:58;;;;;;;1.40;0.95;;;9.70;99.90;;;9.66;100.00;99424.94;5234909;28;20507;-49
2023/12/31 07:50:31;;;;;;;2.05;0.80;;;9.70;99.90;;;9.65;100.00;99424.88;5232652;28;20045;-48
2023/12/31 07:53:04;;;;;;;2.58;1.20;;;9.70;99.90;;;9.64;100.00;99417.91;5235888;28;20504;-48
2023/12/31 07:55:36;;;;;;;2.00;1.15;;;9.70;99.90;;;9.68;100.00;99419.75;5208281;28;20690;-48
2023/12/31 07:58:09;;;;;;;3.05;1.20;;;9.70;99.90;;;9.72;100.00;99416.34;5216728;28;20539;-48
2023/12/31 08:00:41;;;;;;;1.92;1.13;;;9.80;99.90;;;9.74;100.00;99417.25;5229614;28;20045;-48
2023/12/31 08:03:15;;;;;;;4.43;0.90;;;9.80;99.90;;;9.73;100.00;99408.56;5220506;28;20044;-48
2023/12/31 08:05:47;;;;;;;3.08;1.35;;;9.80;99.90;;;9.74;100.00;99409.44;5219588;28;20053;-47
2023/12/31 08:08:20;;;;;;;2.83;1.35;;;9.80;99.90;;;9.73;100.00;99408.56;5215297;28;20403;-47
2023/12/31 08:10:52;;;;;;;2.63;1.10;;;9.90;99.90;;;9.75;100.00;99391.22;5215069;28;20041;-49
2023/12/31 08:13:24;;;;;;;2.30;1.17;;;9.90;99.90;;;9.76;100.00;99376.50;5210285;28;20061;-49
2023/12/31 08:15:57;;;;;;;1.80;1.08;;;9.90;99.90;;;9.76;100.00;99369.56;5209338;28;20147;-49
2023/12/31 08:18:31;;;;;;;5.60;1.15;;;9.90;99.90;;;9.79;100.00;99373.97;5210321;28;20044;-48
2023/12/31 08:21:03;;;;;;;2.83;0.98;;;9.90;99.90;;;9.81;100.00;99371.38;5213181;28;20068;-48
2023/12/31 08:23:36;;;;;;;1.75;1.25;;;9.90;99.90;;;9.81;100.00;99393.06;5212299;28;20144;-48
2023/12/31 08:26:10;;;;;;;1.83;1.10;;;9.90;99.90;;;9.84;100.00;99390.50;5217619;28;20065;-48
2023/12/31 08:28:43;;;;;;;3.55;1.48;;;9.90;99.90;;;9.88;100.00;99387.09;5222734;28;20104;-49
2023/12/31 08:31:16;;;;;;;1.20;1.10;;;9.90;99.90;;;9.90;100.00;99379.31;5216472;28;20462;-49
2023/12/31 08:33:49;;;;;;;1.45;0.95;;;10.00;99.90;;;9.90;100.00;99390.59;5213376;28;20629;-48
2023/12/31 08:36:22;;;;;;;2.70;1.17;;;10.00;99.90;;;9.93;100.00;99388.03;5212304;28;20149;-48
2023/12/31 08:38:54;;;;;;;3.55;0.90;;;10.00;99.90;;;10.10;100.00;99397.81;5217117;28;20064;-47
2023/12/31 08:41:27;;;;;;;4.13;1.20;;;10.10;99.90;;;10.29;100.00;99390.31;5203504;28;20054;-48
2023/12/31 08:44:00;;;;;;;4.00;1.65;;;10.30;99.90;;;10.36;100.00;99391.28;5216236;28;20396;-47
2023/12/31 08:46:32;;;;;;;2.25;1.15;;;10.40;99.90;;;10.36;100.00;99386.06;5219733;28;21277;-48
2023/12/31 08:49:07;;;;;;;2.67;1.33;;;10.50;99.90;;;10.34;100.00;99382.56;5217216;28;20045;-49
2023/12/31 08:51:39;;;;;;;2.92;1.70;;;10.40;99.90;;;10.34;100.00;99382.56;5216033;28;20425;-48
2023/12/31 08:54:11;;;;;;;2.55;1.20;;;10.50;99.90;;;10.39;100.00;99382.66;5216816;28;20041;-48
2023/12/31 08:56:44;;;;;;;1.88;1.10;;;10.50;99.90;;;10.36;100.00;99379.97;5214482;28;20042;-47
2023/12/31 08:59:16;;;;;;;1.17;1.08;;;10.50;99.90;;;10.37;100.00;99371.31;5215071;28;20526;-46
2023/12/31 09:01:49;;;;;;;1.10;1.00;;;10.50;99.90;;;10.40;100.00;99371.38;5210132;28;20042;-47
2023/12/31 09:04:23;;;;;;;2.40;1.10;;;10.50;99.90;;;10.41;100.00;99381.78;5215785;28;20049;-47
2023/12/31 09:06:55;;;;;;;3.88;1.38;;;10.60;99.90;;;10.49;100.00;99379.28;5211295;28;20092;-47
2023/12/31 09:09:28;;;;;;;2.30;1.17;;;10.60;99.90;;;10.52;100.00;99377.59;5208589;28;20744;-48
2023/12/31 09:12:02;;;;;;;1.45;1.25;;;10.60;99.90;;;10.53;100.00;99378.47;5212181;28;20052;-49
2023/12/31 09:14:35;;;;;;;1.92;1.15;;;10.60;99.90;;;10.51;100.00;99370.66;5203720;28;20056;-47
2023/12/31 09:17:07;;;;;;;3.05;1.10;;;10.60;99.90;;;10.48;100.00;99370.59;5216699;28;20061;-49
2023/12/31 09:19:41;;;;;;;2.67;1.35;;;10.60;99.90;;;10.49;100.00;99356.72;5217025;28;20661;-49
2023/12/31 09:22:14;;;;;;;2.42;1.10;;;10.50;99.90;;;10.56;100.00;99363.78;5214214;28;20095;-48
2023/12/31 09:24:48;;;;;;;2.70;1.13;;;10.60;99.90;;;10.58;100.00;99363.78;5230131;28;20045;-48
2023/12/31 09:27:21;;;;;;;2.05;1.10;;;10.60;99.90;;;10.59;100.00;99360.31;5215387;28;20123;-49
2023/12/31 09:29:53;;;;;;;2.45;1.42;;;10.60;99.90;;;10.62;100.00;99349.03;5225911;28;20045;-48
2023/12/31 09:32:25;;;;;;;2.47;1.40;;;10.60;99.90;;;10.64;100.00;99365.59;5217403;28;20049;-48
2023/12/31 09:34:59;;;;;;;3.85;1.55;;;10.70;99.90;;;10.68;100.00;99367.34;5232053;28;20460;-48
2023/12/31 09:37:34;;;;;;;3.15;1.33;;;10.70;99.90;;;10.73;100.00;99370.91;5216878;28;20053;-48
2023/12/31 09:40:08;;;;;;;3.35;1.30;;;10.70;99.90;;;10.86;100.00;99373.66;5220691;28;20561;-48
2023/12/31 09:42:48;;;;;;;3.92;1.70;;;10.80;99.90;;;10.90;100.00;99379.78;5204478;28;20065;-48
2023/12/31 09:45:24;;;;;;;3.15;1.52;;;10.90;99.90;;;10.97;100.00;99380.72;5233059;28;20056;-47
2023/12/31 09:48:00;;;;;;;2.88;1.50;;;10.90;99.90;;;10.96;100.00;99385.06;5210452;28;20045;-49
2023/12/31 09:50:35;;;;;;;3.20;1.77;;;11.00;99.90;;;11.02;100.00;99379.94;5217590;28;20423;-48
2023/12/31 09:53:10;;;;;;;3.38;1.85;;;11.00;99.90;;;11.03;100.00;99363.41;5216912;28;20053;-49
2023/12/31 09:55:43;;;;;;;3.00;1.30;;;11.00;99.90;;;11.10;100.00;99362.63;5216297;28;20056;-48
2023/12/31 09:58:17;;;;;;;3.42;1.60;;;11.10;99.90;;;11.19;100.00;99355.72;5216738;28;20047;-48
2023/12/31 10:00:50;;;;;;;2.85;1.40;;;11.10;99.90;;;11.34;100.00;99354.13;5211909;28;20118;-47
2023/12/31 10:03:23;;;;;;;2.47;1.35;;;11.30;99.90;;;11.46;100.00;99344.66;5209217;28;20168;-48
2023/12/31 10:05:58;;;;;;;3.47;1.40;;;11.40;99.90;;;11.47;100.00;99367.28;5214190;28;20127;-48
2023/12/31 10:08:30;;;;;;;3.13;1.40;;;11.40;99.90;;;11.46;100.00;99350.75;5211559;28;20045;-48
2023/12/31 10:11:04;;;;;;;2.50;1.30;;;11.40;99.90;;;11.47;100.00;99368.16;5213200;28;20052;-47
2023/12/31 10:13:37;;;;;;;3.40;1.67;;;11.40;99.90;;;11.46;100.00;99371.63;5221101;28;20045;-48
2023/12/31 10:16:14;;;;;;;6.90;1.65;;;11.40;99.90;;;11.45;100.00;99371.63;5214224;28;20139;-47
2023/12/31 10:18:47;;;;;;;3.47;1.45;;;11.40;99.90;;;11.44;100.00;99360.31;5217940;28;20052;-48
2023/12/31 10:21:20;;;;;;;4.90;1.67;;;11.40;99.90;;;11.41;100.00;99353.34;5233444;28;20068;-47
2023/12/31 10:23:53;;;;;;;3.13;1.63;;;11.40;99.90;;;11.42;100.00;99354.22;5235110;28;20507;-48
2023/12/31 10:26:26;;;;;;;3.53;1.77;;;11.40;99.90;;;11.41;100.00;99362.91;5210286;28;20091;-48
2023/12/31 10:28:58;;;;;;;3.70;1.45;;;11.40;99.90;;;11.39;100.00;99360.25;5215216;28;20041;-47
2023/12/31 10:31:30;;;;;;;2.55;1.40;;;11.30;99.90;;;11.41;100.00;99361.16;5226786;28;20063;-48
2023/12/31 10:34:15;;;;;;;2.53;1.50;;;11.30;99.90;;;11.41;100.00;99362.91;5209012;28;20049;-48
2023/12/31 10:36:49;;;;;;;3.35;1.40;;;11.30;99.90;;;11.44;100.00;99354.22;5234952;28;20041;-47
2023/12/31 10:39:30;;;;;;;2.05;1.30;;;11.30;99.90;;;11.39;100.00;99367.22;5219351;28;20044;-48
2023/12/31 10:42:04;;;;;;;2.28;1.10;;;11.40;99.90;;;11.38;100.00;99365.47;5221171;28;20049;-47
2023/12/31 10:44:38;;;;;;;1.90;1.40;;;11.30;99.90;;;11.41;100.00;99358.56;5220310;28;20049;-47
2023/12/31 10:47:11;;;;;;;1.52;0.90;;;11.30;99.90;;;11.38;100.00;99362.88;5221039;28;20041;-48